createdAt,value
2019-02-02T00:00:42.598Z,97.53
2019-02-02T00:01:42.564Z,97.63
2019-02-02T00:02:42.540Z,97.16
2019-02-02T00:03:42.509Z,97.34
2019-02-02T00:04:42.481Z,97.34
2019-02-02T00:05:42.453Z,97.44
2019-02-02T00:06:42.425Z,98.01
2019-02-02T00:07:42.398Z,97.34
2019-02-02T00:08:42.368Z,97.91
2019-02-02T00:09:42.341Z,97.91
2019-02-02T00:10:42.310Z,98.20
2019-02-02T00:11:42.284Z,98.10
2019-02-02T00:12:42.254Z,98.10
2019-02-02T00:13:42.228Z,97.91
2019-02-02T00:14:45.036Z,98.10
2019-02-02T00:15:42.170Z,97.91
2019-02-02T00:16:42.141Z,97.91
2019-02-02T00:17:42.114Z,97.91
2019-02-02T00:18:42.090Z,98.20
2019-02-02T00:19:42.057Z,98.29
2019-02-02T00:20:42.080Z,98.29
2019-02-02T00:21:42.000Z,98.20
2019-02-02T00:22:42.025Z,97.91
2019-02-02T00:23:41.978Z,98.20
2019-02-02T00:24:41.915Z,98.10
2019-02-02T00:25:41.887Z,97.91
2019-02-02T00:26:41.866Z,98.10
2019-02-02T00:27:41.898Z,98.10
2019-02-02T00:28:41.857Z,98.29
2019-02-02T00:29:41.856Z,98.01
2019-02-02T00:30:41.804Z,97.91
2019-02-02T00:31:41.746Z,97.91
2019-02-02T00:32:41.691Z,98.10
2019-02-02T00:33:41.663Z,97.91
2019-02-02T00:34:41.636Z,97.91
2019-02-02T00:35:41.609Z,97.34
2019-02-02T00:36:41.576Z,97.34
2019-02-02T00:37:41.548Z,97.82
2019-02-02T00:38:41.521Z,97.91
2019-02-02T00:39:41.577Z,97.16
2019-02-02T00:40:41.470Z,97.16
2019-02-02T00:41:41.439Z,97.91
2019-02-02T00:42:41.407Z,98.29
2019-02-02T00:43:41.380Z,98.20
2019-02-02T00:44:41.351Z,98.01
2019-02-02T00:45:41.325Z,98.01
2019-02-02T00:46:41.299Z,98.01
2019-02-02T00:47:41.266Z,97.82
2019-02-02T00:48:41.244Z,98.10
2019-02-02T00:49:41.211Z,97.63
2019-02-02T00:50:41.181Z,97.82
2019-02-02T00:51:41.153Z,97.72
2019-02-02T00:52:41.130Z,97.72
2019-02-02T00:53:41.102Z,97.91
2019-02-02T00:54:41.068Z,97.82
2019-02-02T00:55:41.041Z,97.91
2019-02-02T00:56:41.013Z,98.29
2019-02-02T00:57:52.685Z,98.20
2019-02-02T00:58:40.955Z,98.01
2019-02-02T00:59:40.930Z,97.91
2019-02-02T01:00:40.898Z,98.29
2019-02-02T01:01:40.873Z,97.82
2019-02-02T01:02:40.845Z,98.20
2019-02-02T01:03:40.863Z,97.53
2019-02-02T01:04:40.786Z,98.10
2019-02-02T01:05:40.758Z,97.91
2019-02-02T01:06:40.806Z,97.82
2019-02-02T01:07:40.700Z,98.06
2019-02-02T01:08:40.673Z,97.77
2019-02-02T01:09:40.658Z,97.72
2019-02-02T01:10:40.630Z,97.82
2019-02-02T01:11:40.591Z,98.20
2019-02-02T01:12:40.563Z,98.01
2019-02-02T01:13:40.533Z,98.10
2019-02-02T01:14:40.506Z,98.20
2019-02-02T01:15:40.479Z,97.82
2019-02-02T01:16:40.506Z,98.34
2019-02-02T01:17:40.422Z,98.15
2019-02-02T01:18:40.392Z,98.20
2019-02-02T01:19:40.364Z,97.96
2019-02-02T01:20:40.335Z,98.20
2019-02-02T01:21:40.306Z,97.53
2019-02-02T01:22:40.280Z,97.63
2019-02-02T01:23:40.252Z,98.39
2019-02-02T01:24:40.223Z,98.20
2019-02-02T01:25:40.195Z,98.39
2019-02-02T01:26:40.171Z,98.10
2019-02-02T01:27:40.140Z,97.91
2019-02-02T01:28:40.110Z,98.01
2019-02-02T01:29:40.083Z,98.20
2019-02-02T01:30:40.055Z,98.20
2019-02-02T01:31:40.028Z,97.91
2019-02-02T01:32:39.998Z,97.91
2019-02-02T01:33:39.971Z,97.91
2019-02-02T01:34:39.944Z,98.01
2019-02-02T01:35:39.973Z,98.25
2019-02-02T01:36:39.884Z,98.20
2019-02-02T01:37:39.864Z,98.10
2019-02-02T01:38:39.829Z,97.91
2019-02-02T01:39:39.801Z,98.25
2019-02-02T01:40:39.772Z,98.10
2019-02-02T01:41:39.762Z,98.48
2019-02-02T01:42:39.845Z,98.20
2019-02-02T01:43:39.690Z,98.10
2019-02-02T01:44:39.661Z,98.77
2019-02-02T01:45:39.635Z,98.20
2019-02-02T01:46:39.606Z,98.77
2019-02-02T01:47:39.581Z,98.67
2019-02-02T01:48:39.547Z,98.20
2019-02-02T01:49:39.522Z,97.91
2019-02-02T01:50:39.494Z,98.20
2019-02-02T01:51:39.465Z,98.25
2019-02-02T01:52:39.445Z,98.20
2019-02-02T01:53:39.409Z,98.25
2019-02-02T01:54:39.387Z,98.10
2019-02-02T01:55:39.350Z,98.01
2019-02-02T01:56:39.322Z,97.91
2019-02-02T01:57:39.295Z,98.10
2019-02-02T01:58:39.267Z,98.20
2019-02-02T01:59:39.283Z,98.10
2019-02-02T02:00:39.209Z,97.44
2019-02-02T02:01:41.629Z,98.25
2019-02-02T02:02:39.153Z,98.15
2019-02-02T02:03:39.127Z,98.10
2019-02-02T02:04:39.096Z,98.25
2019-02-02T02:05:39.070Z,98.15
2019-02-02T02:06:39.039Z,98.82
2019-02-02T02:07:39.015Z,98.53
2019-02-02T02:08:38.987Z,98.39
2019-02-02T02:09:38.957Z,98.39
2019-02-02T02:10:38.930Z,99.05
2019-02-02T02:11:38.899Z,98.44
2019-02-02T02:12:38.871Z,99.10
2019-02-02T02:13:38.846Z,98.67
2019-02-02T02:14:38.817Z,98.67
2019-02-02T02:15:38.787Z,98.77
2019-02-02T02:16:38.761Z,98.67
2019-02-02T02:17:38.733Z,98.77
2019-02-02T02:18:38.704Z,98.82
2019-02-02T02:19:38.682Z,98.91
2019-02-02T02:20:38.648Z,98.96
2019-02-02T02:21:38.626Z,98.39
2019-02-02T02:22:41.242Z,98.44
2019-02-02T02:23:38.562Z,98.72
2019-02-02T02:24:38.533Z,98.91
2019-02-02T02:25:38.505Z,98.91
2019-02-02T02:26:38.488Z,99.19
2019-02-02T02:27:38.451Z,98.72
2019-02-02T02:28:38.439Z,98.91
2019-02-02T02:29:38.392Z,98.91
2019-02-02T02:30:38.367Z,98.72
2019-02-02T02:31:38.338Z,98.63
2019-02-02T02:32:38.309Z,98.82
2019-02-02T02:33:38.283Z,98.82
2019-02-02T02:34:38.254Z,98.72
2019-02-02T02:35:38.226Z,98.91
2019-02-02T02:36:38.197Z,98.72
2019-02-02T02:37:38.169Z,98.72
2019-02-02T02:38:38.141Z,98.72
2019-02-02T02:39:38.114Z,98.53
2019-02-02T02:40:38.088Z,98.72
2019-02-02T02:41:38.057Z,98.63
2019-02-02T02:42:38.036Z,98.53
2019-02-02T02:43:38.005Z,98.53
2019-02-02T02:44:37.972Z,98.53
2019-02-02T02:45:37.946Z,99.19
2019-02-02T02:46:37.918Z,98.91
2019-02-02T02:47:37.894Z,98.25
2019-02-02T02:48:37.863Z,98.53
2019-02-02T02:49:37.835Z,98.63
2019-02-02T02:50:37.811Z,98.63
2019-02-02T02:51:37.778Z,98.72
2019-02-02T02:52:37.750Z,98.63
2019-02-02T02:53:37.733Z,98.91
2019-02-02T02:54:37.693Z,98.91
2019-02-02T02:55:37.670Z,98.53
2019-02-02T02:56:37.643Z,98.82
2019-02-02T02:57:37.608Z,98.82
2019-02-02T02:58:41.553Z,98.82
2019-02-02T02:59:37.556Z,99.01
2019-02-02T03:00:37.525Z,98.72
2019-02-02T03:01:37.503Z,98.82
2019-02-02T03:02:37.495Z,98.82
2019-02-02T03:03:37.447Z,98.72
2019-02-02T03:04:37.414Z,98.72
2019-02-02T03:05:37.393Z,98.82
2019-02-02T03:06:37.361Z,98.72
2019-02-02T03:07:37.334Z,98.72
2019-02-02T03:08:37.303Z,98.72
2019-02-02T03:09:37.275Z,98.63
2019-02-02T03:10:37.261Z,98.72
2019-02-02T03:11:37.219Z,98.53
2019-02-02T03:12:37.188Z,98.63
2019-02-02T03:13:37.163Z,99.10
2019-02-02T03:14:37.149Z,99.19
2019-02-02T03:15:37.105Z,98.91
2019-02-02T03:16:37.076Z,99.01
2019-02-02T03:17:37.048Z,99.10
2019-02-02T03:18:37.020Z,99.01
2019-02-02T03:19:36.994Z,99.19
2019-02-02T03:20:36.968Z,99.19
2019-02-02T03:21:36.938Z,99.10
2019-02-02T03:22:36.922Z,99.10
2019-02-02T03:23:36.883Z,99.01
2019-02-02T03:24:36.857Z,99.01
2019-02-02T03:25:36.827Z,98.82
2019-02-02T03:26:36.799Z,99.66
2019-02-02T03:27:36.772Z,99.10
2019-02-02T03:28:36.743Z,99.01
2019-02-02T03:29:36.715Z,99.10
2019-02-02T03:30:36.689Z,99.19
2019-02-02T03:31:36.663Z,99.10
2019-02-02T03:32:36.883Z,99.19
2019-02-02T03:33:36.605Z,99.19
2019-02-02T03:34:36.574Z,99.10
2019-02-02T03:35:36.546Z,99.01
2019-02-02T03:36:36.538Z,99.10
2019-02-02T03:37:36.490Z,99.10
2019-02-02T03:38:36.542Z,98.34
2019-02-02T03:39:36.446Z,98.53
2019-02-02T03:40:36.520Z,98.53
2019-02-02T03:41:36.383Z,98.53
2019-02-02T03:42:36.349Z,98.53
2019-02-02T03:43:36.324Z,98.44
2019-02-02T03:44:36.294Z,98.34
2019-02-02T03:45:36.273Z,98.53
2019-02-02T03:46:36.240Z,98.53
2019-02-02T03:47:36.217Z,98.63
2019-02-02T03:48:36.182Z,98.63
2019-02-02T03:49:36.154Z,99.01
2019-02-02T03:50:36.128Z,98.82
2019-02-02T03:51:36.102Z,98.72
2019-02-02T03:52:36.095Z,98.82
2019-02-02T03:53:36.042Z,98.72
2019-02-02T03:54:36.016Z,98.72
2019-02-02T03:55:35.990Z,98.53
2019-02-02T03:56:35.958Z,98.72
2019-02-02T03:57:35.931Z,98.53
2019-02-02T03:58:35.909Z,98.63
2019-02-02T03:59:35.876Z,98.63
2019-02-02T04:00:35.849Z,98.53
2019-02-02T04:01:35.825Z,98.63
2019-02-02T04:02:35.793Z,98.63
2019-02-02T04:03:35.766Z,98.63
2019-02-02T04:04:35.749Z,98.72
2019-02-02T04:05:35.709Z,98.53
2019-02-02T04:06:35.684Z,99.01
2019-02-02T04:07:35.659Z,99.01
2019-02-02T04:08:35.663Z,98.82
2019-02-02T04:09:35.598Z,99.01
2019-02-02T04:10:35.701Z,99.38
2019-02-02T04:11:35.543Z,99.19
2019-02-02T04:12:35.517Z,99.29
2019-02-02T04:13:35.488Z,99.38
2019-02-02T04:14:35.459Z,99.19
2019-02-02T04:15:35.431Z,99.29
2019-02-02T04:16:35.407Z,99.48
2019-02-02T04:17:35.377Z,99.95
2019-02-02T04:18:35.347Z,99.95
2019-02-02T04:19:35.318Z,99.57
2019-02-02T04:20:35.296Z,99.48
2019-02-02T04:21:35.264Z,99.48
2019-02-02T04:22:35.794Z,99.95
2019-02-02T04:23:35.207Z,99.76
2019-02-02T04:24:35.182Z,99.48
2019-02-02T04:25:35.150Z,99.57
2019-02-02T04:26:35.125Z,99.48
2019-02-02T04:27:35.095Z,99.76
2019-02-02T04:28:35.067Z,99.48
2019-02-02T04:29:35.039Z,99.76
2019-02-02T04:30:35.015Z,99.66
2019-02-02T04:31:34.984Z,99.29
2019-02-02T04:32:34.958Z,99.57
2019-02-02T04:33:34.928Z,99.48
2019-02-02T04:34:34.900Z,99.38
2019-02-02T04:35:34.876Z,99.57
2019-02-02T04:36:34.845Z,99.57
2019-02-02T04:37:34.818Z,99.76
2019-02-02T04:38:34.808Z,99.57
2019-02-02T04:39:34.762Z,99.76
2019-02-02T04:40:34.734Z,99.29
2019-02-02T04:41:34.704Z,99.48
2019-02-02T04:42:34.678Z,99.38
2019-02-02T04:43:34.665Z,99.48
2019-02-02T04:44:34.624Z,99.76
2019-02-02T04:45:34.595Z,99.85
2019-02-02T04:46:34.567Z,99.76
2019-02-02T04:47:34.543Z,99.48
2019-02-02T04:48:34.511Z,99.38
2019-02-02T04:49:34.485Z,99.29
2019-02-02T04:50:34.456Z,99.48
2019-02-02T04:51:34.432Z,99.38
2019-02-02T04:52:34.401Z,99.48
2019-02-02T04:53:34.373Z,99.76
2019-02-02T04:54:34.378Z,99.48
2019-02-02T04:55:34.320Z,99.29
2019-02-02T04:56:34.294Z,99.48
2019-02-02T04:57:34.263Z,99.95
2019-02-02T04:58:34.236Z,99.57
2019-02-02T04:59:34.209Z,99.76
2019-02-02T05:00:34.188Z,99.48
2019-02-02T05:01:34.155Z,99.95
2019-02-02T05:02:34.157Z,99.76
2019-02-02T05:03:34.097Z,99.48
2019-02-02T05:04:34.071Z,99.76
2019-02-02T05:05:34.040Z,99.57
2019-02-02T05:06:34.016Z,99.76
2019-02-02T05:07:33.988Z,99.57
2019-02-02T05:08:33.956Z,99.57
2019-02-02T05:09:33.930Z,99.48
2019-02-02T05:10:33.994Z,99.48
2019-02-02T05:11:33.874Z,99.57
2019-02-02T05:12:33.847Z,99.48
2019-02-02T05:13:33.822Z,99.38
2019-02-02T05:14:33.793Z,99.57
2019-02-02T05:15:33.764Z,99.57
2019-02-02T05:16:33.737Z,99.76
2019-02-02T05:17:33.708Z,99.29
2019-02-02T05:18:33.680Z,99.48
2019-02-02T05:19:33.655Z,99.95
2019-02-02T05:20:33.627Z,99.48
2019-02-02T05:21:33.600Z,99.48
2019-02-02T05:22:33.575Z,99.66
2019-02-02T05:23:33.543Z,99.29
2019-02-02T05:24:33.514Z,99.29
2019-02-02T05:25:33.490Z,99.10
2019-02-02T05:26:33.461Z,99.38
2019-02-02T05:27:33.434Z,99.48
2019-02-02T05:28:33.406Z,99.29
2019-02-02T05:29:41.211Z,99.38
2019-02-02T05:30:33.351Z,98.91
2019-02-02T05:31:33.322Z,99.10
2019-02-02T05:32:33.294Z,99.01
2019-02-02T05:33:33.267Z,99.01
2019-02-02T05:34:33.245Z,99.10
2019-02-02T05:35:33.211Z,98.91
2019-02-02T05:36:33.184Z,99.29
2019-02-02T05:37:33.156Z,99.10
2019-02-02T05:38:33.144Z,98.82
2019-02-02T05:39:33.102Z,98.91
2019-02-02T05:40:33.076Z,99.29
2019-02-02T05:41:33.047Z,99.38
2019-02-02T05:42:33.021Z,99.38
2019-02-02T05:43:32.993Z,99.19
2019-02-02T05:44:32.964Z,99.10
2019-02-02T05:45:32.957Z,99.10
2019-02-02T05:46:32.908Z,99.48
2019-02-02T05:47:32.884Z,99.10
2019-02-02T05:48:32.854Z,98.72
2019-02-02T05:49:32.848Z,98.91
2019-02-02T05:50:32.799Z,98.63
2019-02-02T05:51:32.771Z,98.91
2019-02-02T05:52:32.747Z,98.91
2019-02-02T05:53:32.721Z,99.19
2019-02-02T05:54:32.690Z,99.29
2019-02-02T05:55:32.661Z,98.91
2019-02-02T05:56:32.639Z,98.91
2019-02-02T05:57:32.605Z,98.82
2019-02-02T05:58:32.581Z,99.29
2019-02-02T05:59:32.556Z,99.29
2019-02-02T06:00:32.528Z,99.19
2019-02-02T06:01:32.497Z,99.19
2019-02-02T06:02:32.477Z,99.01
2019-02-02T06:03:32.440Z,99.19
2019-02-02T06:04:32.412Z,99.10
2019-02-02T06:05:32.385Z,98.72
2019-02-02T06:06:32.358Z,99.19
2019-02-02T06:07:32.333Z,99.29
2019-02-02T06:08:32.303Z,99.38
2019-02-02T06:09:32.362Z,99.38
2019-02-02T06:10:32.246Z,99.10
2019-02-02T06:11:32.220Z,99.57
2019-02-02T06:12:32.191Z,99.48
2019-02-02T06:13:32.166Z,99.57
2019-02-02T06:14:32.139Z,99.48
2019-02-02T06:15:32.108Z,99.48
2019-02-02T06:16:32.082Z,99.76
2019-02-02T06:17:32.061Z,99.71
2019-02-02T06:18:32.026Z,99.76
2019-02-02T06:19:32.002Z,99.76
2019-02-02T06:20:31.970Z,99.66
2019-02-02T06:21:31.943Z,99.66
2019-02-02T06:22:31.915Z,99.48
2019-02-02T06:23:31.888Z,99.48
2019-02-02T06:24:31.861Z,99.57
2019-02-02T06:25:31.834Z,99.57
2019-02-02T06:26:31.806Z,99.99
2019-02-02T06:27:31.778Z,99.66
2019-02-02T06:28:31.781Z,99.48
2019-02-02T06:29:31.723Z,99.85
2019-02-02T06:30:31.698Z,99.66
2019-02-02T06:31:31.668Z,99.76
2019-02-02T06:32:31.640Z,99.29
2019-02-02T06:33:31.635Z,98.82
2019-02-02T06:34:31.584Z,99.15
2019-02-02T06:35:31.559Z,98.72
2019-02-02T06:36:31.532Z,98.82
2019-02-02T06:37:31.500Z,98.82
2019-02-02T06:38:31.474Z,98.53
2019-02-02T06:39:31.448Z,98.63
2019-02-02T06:40:31.419Z,99.01
2019-02-02T06:41:31.393Z,99.10
2019-02-02T06:42:31.365Z,99.10
2019-02-02T06:43:31.336Z,99.10
2019-02-02T06:44:31.312Z,98.63
2019-02-02T06:45:31.283Z,99.29
2019-02-02T06:46:43.003Z,99.29
2019-02-02T06:47:31.227Z,99.15
2019-02-02T06:48:31.199Z,98.63
2019-02-02T06:49:31.192Z,98.53
2019-02-02T06:50:31.143Z,99.01
2019-02-02T06:51:31.127Z,99.10
2019-02-02T06:52:31.088Z,99.10
2019-02-02T06:53:31.064Z,99.10
2019-02-02T06:54:33.876Z,99.38
2019-02-02T06:55:31.006Z,98.53
2019-02-02T06:56:30.979Z,98.72
2019-02-02T06:57:30.952Z,98.53
2019-02-02T06:58:30.923Z,98.44
2019-02-02T06:59:30.896Z,98.53
2019-02-02T07:00:30.869Z,98.53
2019-02-02T07:01:30.842Z,98.44
2019-02-02T07:02:30.814Z,98.72
2019-02-02T07:03:30.788Z,98.72
2019-02-02T07:04:30.761Z,98.53
2019-02-02T07:05:33.627Z,98.82
2019-02-02T07:06:30.704Z,99.10
2019-02-02T07:07:30.680Z,99.01
2019-02-02T07:08:30.743Z,99.10
2019-02-02T07:09:30.617Z,98.91
2019-02-02T07:10:30.591Z,99.10
2019-02-02T07:11:30.565Z,99.19
2019-02-02T07:12:30.535Z,99.10
2019-02-02T07:13:30.505Z,99.10
2019-02-02T07:14:30.480Z,98.53
2019-02-02T07:15:30.452Z,98.34
2019-02-02T07:16:30.424Z,98.72
2019-02-02T07:17:30.396Z,98.53
2019-02-02T07:18:30.369Z,99.10
2019-02-02T07:19:30.342Z,99.19
2019-02-02T07:20:30.316Z,99.19
2019-02-02T07:21:30.292Z,98.91
2019-02-02T07:22:30.264Z,99.19
2019-02-02T07:23:30.238Z,98.72
2019-02-02T07:24:30.204Z,98.15
2019-02-02T07:25:30.176Z,98.63
2019-02-02T07:26:30.169Z,98.34
2019-02-02T07:27:30.121Z,98.91
2019-02-02T07:28:30.091Z,99.10
2019-02-02T07:29:30.065Z,98.91
2019-02-02T07:30:30.054Z,99.19
2019-02-02T07:31:30.016Z,99.19
2019-02-02T07:32:30.032Z,99.10
2019-02-02T07:33:29.952Z,99.10
2019-02-02T07:34:29.925Z,99.01
2019-02-02T07:35:29.899Z,99.10
2019-02-02T07:36:29.869Z,98.91
2019-02-02T07:37:29.851Z,99.10
2019-02-02T07:38:29.816Z,99.05
2019-02-02T07:39:29.881Z,99.10
2019-02-02T07:40:29.762Z,98.82
2019-02-02T07:41:29.732Z,98.91
2019-02-02T07:42:29.734Z,99.29
2019-02-02T07:43:29.696Z,98.91
2019-02-02T07:44:29.658Z,99.01
2019-02-02T07:45:29.622Z,99.01
2019-02-02T07:46:29.592Z,98.91
2019-02-02T07:47:29.567Z,99.19
2019-02-02T07:48:29.538Z,99.24
2019-02-02T07:49:29.511Z,99.10
2019-02-02T07:50:29.484Z,99.38
2019-02-02T07:51:29.454Z,99.24
2019-02-02T07:52:29.427Z,99.33
2019-02-02T07:53:29.398Z,99.29
2019-02-02T07:54:29.543Z,99.43
2019-02-02T07:55:29.345Z,99.43
2019-02-02T07:56:29.319Z,99.52
2019-02-02T07:57:29.290Z,99.81
2019-02-02T07:58:29.314Z,99.99
2019-02-02T07:59:29.237Z,99.52
2019-02-02T08:00:39.649Z,99.15
2019-02-02T08:01:29.178Z,99.62
2019-02-02T08:02:29.151Z,99.71
2019-02-02T08:03:29.127Z,99.62
2019-02-02T08:04:29.098Z,99.81
2019-02-02T08:05:29.081Z,99.71
2019-02-02T08:06:29.046Z,99.43
2019-02-02T08:07:29.015Z,99.62
2019-02-02T08:08:28.993Z,99.71
2019-02-02T08:09:28.957Z,99.99
2019-02-02T08:10:28.941Z,99.99
2019-02-02T08:11:28.908Z,99.99
2019-02-02T08:12:28.875Z,99.99
2019-02-02T08:13:28.850Z,99.99
2019-02-02T08:14:28.823Z,99.99
2019-02-02T08:15:28.794Z,99.99
2019-02-02T08:16:28.765Z,99.99
2019-02-02T08:17:28.738Z,99.99
2019-02-02T08:18:28.713Z,99.99
2019-02-02T08:19:28.685Z,99.99
2019-02-02T08:20:28.658Z,99.99
2019-02-02T08:21:28.654Z,99.99
2019-02-02T08:22:28.600Z,99.99
2019-02-02T08:23:28.577Z,99.99
2019-02-02T08:24:28.551Z,99.99
2019-02-02T08:25:28.518Z,99.99
2019-02-02T08:26:28.493Z,99.99
2019-02-02T08:27:28.465Z,99.99
2019-02-02T08:28:28.436Z,99.99
2019-02-02T08:29:28.409Z,99.99
2019-02-02T08:30:28.382Z,99.99
2019-02-02T08:31:28.354Z,99.99
2019-02-02T08:32:28.326Z,99.99
2019-02-02T08:33:28.301Z,99.99
2019-02-02T08:34:28.275Z,99.99
2019-02-02T08:35:28.247Z,99.99
2019-02-02T08:36:28.228Z,99.99
2019-02-02T08:37:28.192Z,99.99
2019-02-02T08:38:28.298Z,99.99
2019-02-02T08:39:29.487Z,99.99
2019-02-02T08:40:28.109Z,99.99
2019-02-02T08:41:28.082Z,99.99
2019-02-02T08:42:28.062Z,99.99
2019-02-02T08:43:28.029Z,99.99
2019-02-02T08:44:29.534Z,99.99
2019-02-02T08:45:27.975Z,99.99
2019-02-02T08:46:27.945Z,99.99
2019-02-02T08:47:27.918Z,99.99
2019-02-02T08:48:27.889Z,99.99
2019-02-02T08:49:27.864Z,99.99
2019-02-02T08:50:27.836Z,99.99
2019-02-02T08:51:27.809Z,99.99
2019-02-02T08:52:27.780Z,99.99
2019-02-02T08:53:27.831Z,99.99
2019-02-02T08:54:27.731Z,99.99
2019-02-02T08:55:27.768Z,99.99
2019-02-02T08:56:27.745Z,99.99
2019-02-02T08:57:27.648Z,99.99
2019-02-02T08:58:27.621Z,99.99
2019-02-02T08:59:27.591Z,99.99
2019-02-02T09:00:27.563Z,99.99
2019-02-02T09:01:27.536Z,99.99
2019-02-02T09:02:27.512Z,99.99
2019-02-02T09:03:27.491Z,99.99
2019-02-02T09:04:27.454Z,99.99
2019-02-02T09:05:27.450Z,99.99
2019-02-02T09:06:38.207Z,99.99
2019-02-02T09:07:27.375Z,99.99
2019-02-02T09:08:27.357Z,99.99
2019-02-02T09:09:27.317Z,99.99
2019-02-02T09:10:27.426Z,99.99
2019-02-02T09:11:27.268Z,99.99
2019-02-02T09:12:27.235Z,99.99
2019-02-02T09:13:27.214Z,99.99
2019-02-02T09:14:27.184Z,99.99
2019-02-02T09:15:27.158Z,99.99
2019-02-02T09:16:27.128Z,99.99
2019-02-02T09:17:27.143Z,99.99
2019-02-02T09:18:27.076Z,99.99
2019-02-02T09:19:27.048Z,99.99
2019-02-02T09:20:27.019Z,99.99
2019-02-02T09:21:27.006Z,99.99
2019-02-02T09:22:26.967Z,99.99
2019-02-02T09:23:26.942Z,99.99
2019-02-02T09:24:26.911Z,99.99
2019-02-02T09:25:26.884Z,99.99
2019-02-02T09:26:26.857Z,99.99
2019-02-02T09:27:26.830Z,99.99
2019-02-02T09:28:26.886Z,99.99
2019-02-02T09:29:26.773Z,99.99
2019-02-02T09:30:26.777Z,99.99
2019-02-02T09:31:26.719Z,99.99
2019-02-02T09:32:26.691Z,99.99
2019-02-02T09:33:26.666Z,99.99
2019-02-02T09:34:28.867Z,99.99
2019-02-02T09:35:26.614Z,99.99
2019-02-02T09:36:26.585Z,99.99
2019-02-02T09:37:26.557Z,99.99
2019-02-02T09:38:26.531Z,99.99
2019-02-02T09:39:26.550Z,99.99
2019-02-02T09:40:26.479Z,99.99
2019-02-02T09:41:26.449Z,99.99
2019-02-02T09:42:26.425Z,99.99
2019-02-02T09:43:26.394Z,99.99
2019-02-02T09:44:26.372Z,99.99
2019-02-02T09:45:26.440Z,99.99
2019-02-02T09:46:26.312Z,99.99
2019-02-02T09:47:26.293Z,99.99
2019-02-02T09:48:26.260Z,99.99
2019-02-02T09:49:26.230Z,99.99
2019-02-02T09:50:26.219Z,99.99
2019-02-02T09:51:26.176Z,99.99
2019-02-02T09:52:26.148Z,99.99
2019-02-02T09:53:26.126Z,99.99
2019-02-02T09:54:26.990Z,99.99
2019-02-02T09:55:26.070Z,99.99
2019-02-02T09:56:26.043Z,99.99
2019-02-02T09:57:27.997Z,99.99
2019-02-02T09:58:25.987Z,99.99
2019-02-02T09:59:25.966Z,99.99
2019-02-02T10:00:25.937Z,99.99
2019-02-02T10:01:27.813Z,99.99
2019-02-02T10:02:27.180Z,99.99
2019-02-02T10:03:25.854Z,99.99
2019-02-02T10:04:25.832Z,99.99
2019-02-02T10:05:25.798Z,99.99
2019-02-02T10:06:25.774Z,99.99
2019-02-02T10:07:25.764Z,99.99
2019-02-02T10:08:28.203Z,99.99
2019-02-02T10:09:25.691Z,99.99
2019-02-02T10:10:25.665Z,99.99
2019-02-02T10:11:25.646Z,99.99
2019-02-02T10:12:25.610Z,99.99
2019-02-02T10:13:25.583Z,99.99
2019-02-02T10:14:25.557Z,99.99
2019-02-02T10:15:25.529Z,99.99
2019-02-02T10:16:25.501Z,99.99
2019-02-02T10:17:25.476Z,99.99
2019-02-02T10:18:25.450Z,99.99
2019-02-02T10:19:25.423Z,99.99
2019-02-02T10:20:25.394Z,99.99
2019-02-02T10:21:25.373Z,99.99
2019-02-02T10:22:25.417Z,99.99
2019-02-02T10:23:25.315Z,99.99
2019-02-02T10:24:25.286Z,99.99
2019-02-02T10:25:25.659Z,99.99
2019-02-02T10:26:25.233Z,99.99
2019-02-02T10:27:25.206Z,99.99
2019-02-02T10:28:25.180Z,99.99
2019-02-02T10:29:25.168Z,99.99
2019-02-02T10:30:25.128Z,99.99
2019-02-02T10:31:25.097Z,99.99
2019-02-02T10:32:25.071Z,99.99
2019-02-02T10:33:25.058Z,99.99
2019-02-02T10:34:25.018Z,99.99
2019-02-02T10:35:25.001Z,99.99
2019-02-02T10:36:24.965Z,99.99
2019-02-02T10:37:24.937Z,99.99
2019-02-02T10:38:24.910Z,99.99
2019-02-02T10:39:24.883Z,99.99
2019-02-02T10:40:24.857Z,99.99
2019-02-02T10:41:24.830Z,99.99
2019-02-02T10:42:24.802Z,99.99
2019-02-02T10:43:24.804Z,99.99
2019-02-02T10:44:24.750Z,99.99
2019-02-02T10:45:24.732Z,99.99
2019-02-02T10:46:24.699Z,99.99
2019-02-02T10:47:24.674Z,99.99
2019-02-02T10:48:24.644Z,99.99
2019-02-02T10:49:24.616Z,99.99
2019-02-02T10:50:24.588Z,99.99
2019-02-02T10:51:25.538Z,99.99
2019-02-02T10:52:24.534Z,99.99
2019-02-02T10:53:24.540Z,99.99
2019-02-02T10:54:24.575Z,99.99
2019-02-02T10:55:24.456Z,99.99
2019-02-02T10:56:24.426Z,99.99
2019-02-02T10:57:24.401Z,99.99
2019-02-02T10:58:24.374Z,99.99
2019-02-02T10:59:24.347Z,99.99
2019-02-02T11:00:24.323Z,99.99
2019-02-02T11:01:24.295Z,99.99
2019-02-02T11:02:24.267Z,99.99
2019-02-02T11:03:24.249Z,99.99
2019-02-02T11:04:24.412Z,99.99
2019-02-02T11:05:24.225Z,99.99
2019-02-02T11:06:24.158Z,99.99
2019-02-02T11:07:24.140Z,99.99
2019-02-02T11:08:24.288Z,99.99
2019-02-02T11:09:24.099Z,99.99
2019-02-02T11:10:24.053Z,99.99
2019-02-02T11:11:24.028Z,99.99
2019-02-02T11:12:24.219Z,99.99
2019-02-02T11:13:24.014Z,99.99
2019-02-02T11:14:24.048Z,99.99
2019-02-02T11:15:24.182Z,99.99
2019-02-02T11:16:23.999Z,99.99
2019-02-02T11:17:23.896Z,99.99
2019-02-02T11:18:23.924Z,99.99
2019-02-02T11:19:23.829Z,99.99
2019-02-02T11:20:24.046Z,99.99
2019-02-02T11:21:23.990Z,99.99
2019-02-02T11:22:23.785Z,99.99
2019-02-02T11:23:23.753Z,99.99
2019-02-02T11:24:23.773Z,99.99
2019-02-02T11:25:23.691Z,99.99
2019-02-02T11:26:23.706Z,99.99
2019-02-02T11:27:23.605Z,99.99
2019-02-02T11:28:23.810Z,99.99
2019-02-02T11:29:23.540Z,99.99
2019-02-02T11:30:23.521Z,99.99
2019-02-02T11:31:23.488Z,99.99
2019-02-02T11:32:23.464Z,99.99
2019-02-02T11:33:23.432Z,99.99
2019-02-02T11:34:23.407Z,99.99
2019-02-02T11:35:23.433Z,99.99
2019-02-02T11:36:23.352Z,99.99
2019-02-02T11:37:23.329Z,99.99
2019-02-02T11:38:23.372Z,99.99
2019-02-02T11:39:23.272Z,99.99
2019-02-02T11:40:23.248Z,99.99
2019-02-02T11:41:23.218Z,99.99
2019-02-02T11:42:23.316Z,99.99
2019-02-02T11:43:23.279Z,99.99
2019-02-02T11:44:23.137Z,99.99
2019-02-02T11:45:23.109Z,99.99
2019-02-02T11:46:23.160Z,99.99
2019-02-02T11:47:23.122Z,99.99
2019-02-02T11:48:23.030Z,99.99
2019-02-02T11:49:23.990Z,99.99
2019-02-02T11:50:22.978Z,99.99
2019-02-02T11:51:22.952Z,99.99
2019-02-02T11:52:23.447Z,99.99
2019-02-02T11:53:22.904Z,99.99
2019-02-02T11:54:22.870Z,99.99
2019-02-02T11:55:22.843Z,99.99
2019-02-02T11:56:22.815Z,99.99
2019-02-02T11:57:22.815Z,99.99
2019-02-02T11:58:22.764Z,99.99
2019-02-02T11:59:22.740Z,99.99
2019-02-02T12:00:22.706Z,99.99
2019-02-02T12:01:22.680Z,99.99
2019-02-02T12:02:22.655Z,99.99
2019-02-02T12:03:22.629Z,99.99
2019-02-02T12:04:22.600Z,99.99
2019-02-02T12:05:22.574Z,99.99
2019-02-02T12:06:22.545Z,99.99
2019-02-02T12:07:22.519Z,99.99
2019-02-02T12:08:22.491Z,99.99
2019-02-02T12:09:22.466Z,99.99
2019-02-02T12:10:22.458Z,99.99
2019-02-02T12:11:22.412Z,99.99
2019-02-02T12:12:22.384Z,99.99
2019-02-02T12:13:22.357Z,99.99
2019-02-02T12:14:22.379Z,99.99
2019-02-02T12:15:22.407Z,99.99
2019-02-02T12:16:22.301Z,99.99
2019-02-02T12:17:22.250Z,99.99
2019-02-02T12:18:22.222Z,99.99
2019-02-02T12:19:22.196Z,99.99
2019-02-02T12:20:22.168Z,99.99
2019-02-02T12:21:22.163Z,99.99
2019-02-02T12:22:22.116Z,99.99
2019-02-02T12:23:22.090Z,99.99
2019-02-02T12:24:22.100Z,99.99
2019-02-02T12:25:22.050Z,99.99
2019-02-02T12:26:22.010Z,99.99
2019-02-02T12:27:21.980Z,99.99
2019-02-02T12:28:21.953Z,99.99
2019-02-02T12:29:21.926Z,99.99
2019-02-02T12:30:21.899Z,99.99
2019-02-02T12:31:21.877Z,99.99
2019-02-02T12:32:26.855Z,99.99
2019-02-02T12:33:21.818Z,99.99
2019-02-02T12:34:21.791Z,99.99
2019-02-02T12:35:21.763Z,99.99
2019-02-02T12:36:21.736Z,99.99
2019-02-02T12:37:21.710Z,99.99
2019-02-02T12:38:21.681Z,99.99
2019-02-02T12:39:21.658Z,99.99
2019-02-02T12:40:21.627Z,99.99
2019-02-02T12:41:21.604Z,99.99
2019-02-02T12:42:21.603Z,99.99
2019-02-02T12:43:21.551Z,99.99
2019-02-02T12:44:21.518Z,99.99
2019-02-02T12:45:21.494Z,99.99
2019-02-02T12:46:21.472Z,99.99
2019-02-02T12:47:21.438Z,99.99
2019-02-02T12:48:21.412Z,99.99
2019-02-02T12:49:21.387Z,99.99
2019-02-02T12:50:21.355Z,99.99
2019-02-02T12:51:21.330Z,99.99
2019-02-02T12:52:21.306Z,99.99